Nearby METAR Reports

 

EGWC - Cosford Raf, United Kingdom
Distance from station: SSW 22km
Updated: 26/01/2022 15:50
NOT Current
Mostly cloudy
Mostly cloudy
 Wind from WSW
Wind: WSW 7 mph , 11 km/h
Temperature: 8°C
Wind Chill: 6°C
Dew Point: 2°C
Humidity: 66%
Barometer: 1030 hPa
Clouds: Mostly cloudy
Visibility: 6 miles , 10 km
Cloud details: Mostly cloudy 1219 m
2022/01/26 15:50 EGWC 261550Z 25006KT 9999 BKN040 08/02 Q1030 RMK BLU
EGOS - Shawbury Raf, United Kingdom
Distance from station: W 37km
Updated: 29/01/2022 03:50
Mostly cloudy
Mostly cloudy
 Wind from W
Wind: W 18 mph , 30 km/h
Temperature: 10°C
Wind Chill: 7°C
Dew Point: 8°C
Humidity: 88%
Barometer: 1025 hPa
Clouds: Mostly cloudy
Visibility: 6 miles , 10 km
Cloud details: Mostly cloudy 823 m
2022/01/29 03:50 EGOS 290350Z AUTO 26016KT 9999 BKN027/// 10/08 Q1025
 
EGBB - Birmingham Airpo, United Kingdom
Distance from station: SE 44km
Updated: 29/01/2022 04:20
Mostly cloudy
Mostly cloudy
 Wind from W
Wind: W 14 mph , 22 km/h
Temperature: 11°C
Dew Point: 8°C
Humidity: 82%
Barometer: 1025 hPa
Clouds: Mostly cloudy
Visibility: 6 miles , 10 km
Cloud details: Mostly cloudy 732 m
2022/01/29 04:20 EGBB 290420Z 27012KT 9999 BKN024 11/08 Q1025
EGNX - East Midlands, United Kingdom
Distance from station: E 54km
Updated: 29/01/2022 04:20
Few Clouds
Few Clouds
 Wind from WSW
Wind: WSW 22 mph , 35 km/h
Temperature: 10°C
Wind Chill: 6°C
Dew Point: 7°C
Humidity: 82%
Barometer: 1024 hPa
Clouds: Few Clouds
Visibility: 6 miles , 10 km
Cloud details: Few Clouds 1036 m
2022/01/29 04:20 EGNX 290420Z 24019KT 9999 FEW034 10/07 Q1024
 
EGCC - Manchester Intl, United Kingdom
Distance from station: N 63km
Updated: 29/01/2022 04:20
Overcast
Overcast
 Wind from WSW
Wind: WSW 13 mph , 20 km/h
Temperature: 10°C
Wind Chill: 7°C
Dew Point: 7°C
Humidity: 82%
Barometer: 1024 hPa
Clouds: Overcast
Visibility: 6 miles , 10 km
Cloud details: Mostly cloudy 853 m
Overcast 1036 m
2022/01/29 04:20 EGCC 290420Z AUTO 25011KT 9999 BKN028 OVC034 10/07 Q1024
EGBE - Coventry Airport, United Kingdom
Distance from station: SE 65km
Updated: 18/07/2017 14:50
NOT Current
Clear
Clear
 Wind from E
Wind: E 16 mph , 26 km/h
Temperature: 27°C
Heat Index: 27°C
Dew Point: 14°C
Humidity: 45%
Barometer: 1015 hPa
Summary: Clear
Visibility: greater than 7 miles , 10 km
2017/07/18 13:50 EGBE 181350Z 10014KT 060V120 CAVOK 27/14 Q1015
 
EGNR - Hawarden (aut), United Kingdom
Distance from station: NW 70km
Updated: 28/01/2022 19:20
NOT Current
Partly cloudy
Partly cloudy
 Wind from W
Wind: W 7 mph , 11 km/h
Temperature: 11°C
Dew Point: 7°C
Humidity: 77%
Barometer: 1028 hPa
Clouds: Partly cloudy
Visibility: 6 miles , 10 km
Cloud details: Partly cloudy 853 m
2022/01/28 19:20 EGNR 281920Z 27006KT 240V310 9999 SCT028 11/07 Q1028
EGGP - Liverpool Airpor, United Kingdom
Distance from station: NW 76km
Updated: 29/01/2022 04:20
Overcast
Overcast
 Wind from WSW
Wind: WSW 12 mph , 19 km/h
Temperature: 10°C
Wind Chill: 7°C
Dew Point: 7°C
Humidity: 82%
Barometer: 1024 hPa
Clouds: Overcast
Visibility: 6 miles , 10 km
Cloud details: Mostly cloudy 823 m
Overcast 1006 m
2022/01/29 04:20 EGGP 290420Z AUTO 25010KT 9999 BKN027/// OVC033/// 10/07 Q1024